<?xml version="1.0" encoding="UTF-8" standalone="no" ?>
<gpx xmlns="http://www.topografix.com/GPX/1/1" xmlns:xsi="http://www.w3.org/2001/XMLSchema-instance" xsi:schemaLocation="http://www.topografix.com/GPX/1/1 http://www.topografix.com/GPX/1/1/gpx.xsd" version="1.1" creator="VisuGPX - https://www.visugpx.com">
  <metadata>
    <name>21-FEV-21reco pedestre</name>
  </metadata>
  <trk>
    <name><![CDATA[21-FEV-21reco pedestre]]></name>
    <trkseg>
      <trkpt lat="47.76136" lon="6.59236">
        <ele>354.38</ele>
        <time>2021-02-21T11:08:56Z</time>
      </trkpt>
      <trkpt lat="47.76134" lon="6.59234">
        <ele>356.79</ele>
        <time>2021-02-21T11:09:21Z</time>
      </trkpt>
      <trkpt lat="47.76135" lon="6.59236">
        <ele>358.23</ele>
        <time>2021-02-21T11:09:46Z</time>
      </trkpt>
      <trkpt lat="47.76133" lon="6.59239">
        <ele>356.31</ele>
        <time>2021-02-21T11:10:11Z</time>
      </trkpt>
      <trkpt lat="47.76121" lon="6.59241">
        <ele>360.15</ele>
        <time>2021-02-21T11:10:36Z</time>
      </trkpt>
      <trkpt lat="47.76114" lon="6.59242">
        <ele>360.63</ele>
        <time>2021-02-21T11:11:01Z</time>
      </trkpt>
      <trkpt lat="47.76103" lon="6.59246">
        <ele>360.15</ele>
        <time>2021-02-21T11:11:26Z</time>
      </trkpt>
      <trkpt lat="47.76083" lon="6.59255">
        <ele>361.11</ele>
        <time>2021-02-21T11:11:51Z</time>
      </trkpt>
      <trkpt lat="47.7606" lon="6.59265">
        <ele>359.19</ele>
        <time>2021-02-21T11:12:16Z</time>
      </trkpt>
      <trkpt lat="47.76047" lon="6.59297">
        <ele>365.92</ele>
        <time>2021-02-21T11:12:41Z</time>
      </trkpt>
      <trkpt lat="47.76035" lon="6.59328">
        <ele>366.4</ele>
        <time>2021-02-21T11:13:06Z</time>
      </trkpt>
      <trkpt lat="47.76028" lon="6.59363">
        <ele>367.84</ele>
        <time>2021-02-21T11:13:31Z</time>
      </trkpt>
      <trkpt lat="47.76026" lon="6.59366">
        <ele>367.84</ele>
        <time>2021-02-21T11:13:56Z</time>
      </trkpt>
      <trkpt lat="47.76028" lon="6.59367">
        <ele>367.36</ele>
        <time>2021-02-21T11:14:21Z</time>
      </trkpt>
      <trkpt lat="47.76024" lon="6.59374">
        <ele>364.48</ele>
        <time>2021-02-21T11:14:46Z</time>
      </trkpt>
      <trkpt lat="47.76011" lon="6.5942">
        <ele>362.07</ele>
        <time>2021-02-21T11:15:11Z</time>
      </trkpt>
      <trkpt lat="47.76011" lon="6.59446">
        <ele>360.63</ele>
        <time>2021-02-21T11:15:36Z</time>
      </trkpt>
      <trkpt lat="47.7601" lon="6.5945">
        <ele>360.63</ele>
        <time>2021-02-21T11:16:01Z</time>
      </trkpt>
      <trkpt lat="47.76013" lon="6.59476">
        <ele>360.63</ele>
        <time>2021-02-21T11:16:26Z</time>
      </trkpt>
      <trkpt lat="47.76018" lon="6.59507">
        <ele>359.67</ele>
        <time>2021-02-21T11:16:51Z</time>
      </trkpt>
      <trkpt lat="47.76019" lon="6.59546">
        <ele>358.71</ele>
        <time>2021-02-21T11:17:16Z</time>
      </trkpt>
      <trkpt lat="47.76023" lon="6.59585">
        <ele>359.19</ele>
        <time>2021-02-21T11:17:41Z</time>
      </trkpt>
      <trkpt lat="47.76042" lon="6.59614">
        <ele>363.04</ele>
        <time>2021-02-21T11:18:06Z</time>
      </trkpt>
      <trkpt lat="47.76061" lon="6.59623">
        <ele>370.73</ele>
        <time>2021-02-21T11:18:31Z</time>
      </trkpt>
      <trkpt lat="47.76069" lon="6.59644">
        <ele>372.65</ele>
        <time>2021-02-21T11:18:56Z</time>
      </trkpt>
      <trkpt lat="47.76071" lon="6.59645">
        <ele>372.17</ele>
        <time>2021-02-21T11:19:21Z</time>
      </trkpt>
      <trkpt lat="47.76066" lon="6.59668">
        <ele>372.17</ele>
        <time>2021-02-21T11:19:46Z</time>
      </trkpt>
      <trkpt lat="47.76068" lon="6.59681">
        <ele>374.57</ele>
        <time>2021-02-21T11:20:11Z</time>
      </trkpt>
      <trkpt lat="47.76071" lon="6.59724">
        <ele>377.94</ele>
        <time>2021-02-21T11:20:36Z</time>
      </trkpt>
      <trkpt lat="47.76079" lon="6.59763">
        <ele>378.42</ele>
        <time>2021-02-21T11:21:01Z</time>
      </trkpt>
      <trkpt lat="47.76087" lon="6.59777">
        <ele>377.45</ele>
        <time>2021-02-21T11:21:26Z</time>
      </trkpt>
      <trkpt lat="47.76106" lon="6.59806">
        <ele>379.38</ele>
        <time>2021-02-21T11:21:51Z</time>
      </trkpt>
      <trkpt lat="47.76132" lon="6.59825">
        <ele>380.34</ele>
        <time>2021-02-21T11:22:16Z</time>
      </trkpt>
      <trkpt lat="47.76152" lon="6.59866">
        <ele>379.38</ele>
        <time>2021-02-21T11:22:41Z</time>
      </trkpt>
      <trkpt lat="47.76177" lon="6.59896">
        <ele>374.57</ele>
        <time>2021-02-21T11:23:06Z</time>
      </trkpt>
      <trkpt lat="47.76201" lon="6.59918">
        <ele>377.45</ele>
        <time>2021-02-21T11:23:31Z</time>
      </trkpt>
      <trkpt lat="47.76213" lon="6.59949">
        <ele>373.61</ele>
        <time>2021-02-21T11:23:56Z</time>
      </trkpt>
      <trkpt lat="47.76219" lon="6.59966">
        <ele>374.09</ele>
        <time>2021-02-21T11:24:21Z</time>
      </trkpt>
      <trkpt lat="47.76225" lon="6.60008">
        <ele>372.65</ele>
        <time>2021-02-21T11:24:46Z</time>
      </trkpt>
      <trkpt lat="47.76231" lon="6.60041">
        <ele>371.21</ele>
        <time>2021-02-21T11:25:11Z</time>
      </trkpt>
      <trkpt lat="47.76249" lon="6.60057">
        <ele>376.49</ele>
        <time>2021-02-21T11:25:36Z</time>
      </trkpt>
      <trkpt lat="47.76264" lon="6.60026">
        <ele>375.05</ele>
        <time>2021-02-21T11:26:01Z</time>
      </trkpt>
      <trkpt lat="47.76278" lon="6.60001">
        <ele>374.57</ele>
        <time>2021-02-21T11:26:26Z</time>
      </trkpt>
      <trkpt lat="47.7628" lon="6.6">
        <ele>374.09</ele>
        <time>2021-02-21T11:26:51Z</time>
      </trkpt>
      <trkpt lat="47.76292" lon="6.59975">
        <ele>375.53</ele>
        <time>2021-02-21T11:27:16Z</time>
      </trkpt>
      <trkpt lat="47.76296" lon="6.59956">
        <ele>376.49</ele>
        <time>2021-02-21T11:27:41Z</time>
      </trkpt>
      <trkpt lat="47.76308" lon="6.59917">
        <ele>373.61</ele>
        <time>2021-02-21T11:28:06Z</time>
      </trkpt>
      <trkpt lat="47.76314" lon="6.59877">
        <ele>371.21</ele>
        <time>2021-02-21T11:28:31Z</time>
      </trkpt>
      <trkpt lat="47.76326" lon="6.59852">
        <ele>372.17</ele>
        <time>2021-02-21T11:28:56Z</time>
      </trkpt>
      <trkpt lat="47.76339" lon="6.59838">
        <ele>372.65</ele>
        <time>2021-02-21T11:29:21Z</time>
      </trkpt>
      <trkpt lat="47.76353" lon="6.59824">
        <ele>372.17</ele>
        <time>2021-02-21T11:29:46Z</time>
      </trkpt>
      <trkpt lat="47.76384" lon="6.59818">
        <ele>373.13</ele>
        <time>2021-02-21T11:30:11Z</time>
      </trkpt>
      <trkpt lat="47.76408" lon="6.5981">
        <ele>372.65</ele>
        <time>2021-02-21T11:30:36Z</time>
      </trkpt>
      <trkpt lat="47.7643" lon="6.59815">
        <ele>375.05</ele>
        <time>2021-02-21T11:31:01Z</time>
      </trkpt>
      <trkpt lat="47.76444" lon="6.59815">
        <ele>374.09</ele>
        <time>2021-02-21T11:31:26Z</time>
      </trkpt>
      <trkpt lat="47.76449" lon="6.5981">
        <ele>374.09</ele>
        <time>2021-02-21T11:31:51Z</time>
      </trkpt>
      <trkpt lat="47.76474" lon="6.59789">
        <ele>372.17</ele>
        <time>2021-02-21T11:32:16Z</time>
      </trkpt>
      <trkpt lat="47.76497" lon="6.59779">
        <ele>369.28</ele>
        <time>2021-02-21T11:32:41Z</time>
      </trkpt>
      <trkpt lat="47.7652" lon="6.59784">
        <ele>367.84</ele>
        <time>2021-02-21T11:33:06Z</time>
      </trkpt>
      <trkpt lat="47.76528" lon="6.59779">
        <ele>365.44</ele>
        <time>2021-02-21T11:33:31Z</time>
      </trkpt>
      <trkpt lat="47.76543" lon="6.59769">
        <ele>358.23</ele>
        <time>2021-02-21T11:33:56Z</time>
      </trkpt>
      <trkpt lat="47.76553" lon="6.5976">
        <ele>357.75</ele>
        <time>2021-02-21T11:34:21Z</time>
      </trkpt>
      <trkpt lat="47.76561" lon="6.59755">
        <ele>356.31</ele>
        <time>2021-02-21T11:34:46Z</time>
      </trkpt>
      <trkpt lat="47.76566" lon="6.5975">
        <ele>354.86</ele>
        <time>2021-02-21T11:35:11Z</time>
      </trkpt>
      <trkpt lat="47.76594" lon="6.59742">
        <ele>351.02</ele>
        <time>2021-02-21T11:35:36Z</time>
      </trkpt>
      <trkpt lat="47.76628" lon="6.59742">
        <ele>348.62</ele>
        <time>2021-02-21T11:36:01Z</time>
      </trkpt>
      <trkpt lat="47.76649" lon="6.59751">
        <ele>347.65</ele>
        <time>2021-02-21T11:36:26Z</time>
      </trkpt>
      <trkpt lat="47.76677" lon="6.59755">
        <ele>346.21</ele>
        <time>2021-02-21T11:36:51Z</time>
      </trkpt>
      <trkpt lat="47.7668" lon="6.59757">
        <ele>349.1</ele>
        <time>2021-02-21T11:37:16Z</time>
      </trkpt>
      <trkpt lat="47.76693" lon="6.59743">
        <ele>347.17</ele>
        <time>2021-02-21T11:37:41Z</time>
      </trkpt>
      <trkpt lat="47.76717" lon="6.59728">
        <ele>347.65</ele>
        <time>2021-02-21T11:38:06Z</time>
      </trkpt>
      <trkpt lat="47.76735" lon="6.59718">
        <ele>347.17</ele>
        <time>2021-02-21T11:38:31Z</time>
      </trkpt>
      <trkpt lat="47.76749" lon="6.59711">
        <ele>346.69</ele>
        <time>2021-02-21T11:38:56Z</time>
      </trkpt>
      <trkpt lat="47.7675" lon="6.59714">
        <ele>346.69</ele>
        <time>2021-02-21T11:39:21Z</time>
      </trkpt>
      <trkpt lat="47.76749" lon="6.59712">
        <ele>346.69</ele>
        <time>2021-02-21T11:39:46Z</time>
      </trkpt>
      <trkpt lat="47.76754" lon="6.5971">
        <ele>347.17</ele>
        <time>2021-02-21T11:40:11Z</time>
      </trkpt>
      <trkpt lat="47.76776" lon="6.59699">
        <ele>345.25</ele>
        <time>2021-02-21T11:40:36Z</time>
      </trkpt>
      <trkpt lat="47.76786" lon="6.59694">
        <ele>347.17</ele>
        <time>2021-02-21T11:41:01Z</time>
      </trkpt>
      <trkpt lat="47.76788" lon="6.59694">
        <ele>347.17</ele>
        <time>2021-02-21T11:41:26Z</time>
      </trkpt>
      <trkpt lat="47.76788" lon="6.59693">
        <ele>347.65</ele>
        <time>2021-02-21T11:41:51Z</time>
      </trkpt>
      <trkpt lat="47.76791" lon="6.59675">
        <ele>349.1</ele>
        <time>2021-02-21T11:42:16Z</time>
      </trkpt>
      <trkpt lat="47.76795" lon="6.59672">
        <ele>348.62</ele>
        <time>2021-02-21T11:42:41Z</time>
      </trkpt>
      <trkpt lat="47.76798" lon="6.59666">
        <ele>348.62</ele>
        <time>2021-02-21T11:43:06Z</time>
      </trkpt>
      <trkpt lat="47.76812" lon="6.59627">
        <ele>347.17</ele>
        <time>2021-02-21T11:43:31Z</time>
      </trkpt>
      <trkpt lat="47.76828" lon="6.59595">
        <ele>350.54</ele>
        <time>2021-02-21T11:43:56Z</time>
      </trkpt>
      <trkpt lat="47.76839" lon="6.5957">
        <ele>349.58</ele>
        <time>2021-02-21T11:44:21Z</time>
      </trkpt>
      <trkpt lat="47.76869" lon="6.59533">
        <ele>350.06</ele>
        <time>2021-02-21T11:44:46Z</time>
      </trkpt>
      <trkpt lat="47.76872" lon="6.59525">
        <ele>350.54</ele>
        <time>2021-02-21T11:45:11Z</time>
      </trkpt>
      <trkpt lat="47.76877" lon="6.5951">
        <ele>350.06</ele>
        <time>2021-02-21T11:45:36Z</time>
      </trkpt>
      <trkpt lat="47.76876" lon="6.59507">
        <ele>350.06</ele>
        <time>2021-02-21T11:46:01Z</time>
      </trkpt>
      <trkpt lat="47.76876" lon="6.59505">
        <ele>350.54</ele>
        <time>2021-02-21T11:46:26Z</time>
      </trkpt>
      <trkpt lat="47.76877" lon="6.59504">
        <ele>351.5</ele>
        <time>2021-02-21T11:46:51Z</time>
      </trkpt>
      <trkpt lat="47.76878" lon="6.59499">
        <ele>349.58</ele>
        <time>2021-02-21T11:47:16Z</time>
      </trkpt>
      <trkpt lat="47.76895" lon="6.59466">
        <ele>350.06</ele>
        <time>2021-02-21T11:47:41Z</time>
      </trkpt>
      <trkpt lat="47.76903" lon="6.59424">
        <ele>350.06</ele>
        <time>2021-02-21T11:48:06Z</time>
      </trkpt>
      <trkpt lat="47.76913" lon="6.59418">
        <ele>350.54</ele>
        <time>2021-02-21T11:48:31Z</time>
      </trkpt>
      <trkpt lat="47.76936" lon="6.59406">
        <ele>349.58</ele>
        <time>2021-02-21T11:48:56Z</time>
      </trkpt>
      <trkpt lat="47.76933" lon="6.59401">
        <ele>349.1</ele>
        <time>2021-02-21T11:49:21Z</time>
      </trkpt>
      <trkpt lat="47.76944" lon="6.59396">
        <ele>349.1</ele>
        <time>2021-02-21T11:49:46Z</time>
      </trkpt>
      <trkpt lat="47.76945" lon="6.59395">
        <ele>349.58</ele>
        <time>2021-02-21T11:50:11Z</time>
      </trkpt>
      <trkpt lat="47.76946" lon="6.59395">
        <ele>347.65</ele>
        <time>2021-02-21T11:50:36Z</time>
      </trkpt>
      <trkpt lat="47.76947" lon="6.59394">
        <ele>351.02</ele>
        <time>2021-02-21T11:51:01Z</time>
      </trkpt>
      <trkpt lat="47.76948" lon="6.59392">
        <ele>351.02</ele>
        <time>2021-02-21T11:51:26Z</time>
      </trkpt>
      <trkpt lat="47.76949" lon="6.59386">
        <ele>351.02</ele>
        <time>2021-02-21T11:51:51Z</time>
      </trkpt>
      <trkpt lat="47.76953" lon="6.59376">
        <ele>350.06</ele>
        <time>2021-02-21T11:52:16Z</time>
      </trkpt>
      <trkpt lat="47.76955" lon="6.59367">
        <ele>350.06</ele>
        <time>2021-02-21T11:52:41Z</time>
      </trkpt>
      <trkpt lat="47.76955" lon="6.59356">
        <ele>351.02</ele>
        <time>2021-02-21T11:53:06Z</time>
      </trkpt>
      <trkpt lat="47.76955" lon="6.59354">
        <ele>351.02</ele>
        <time>2021-02-21T11:53:31Z</time>
      </trkpt>
      <trkpt lat="47.76955" lon="6.59354">
        <ele>350.54</ele>
        <time>2021-02-21T11:53:56Z</time>
      </trkpt>
      <trkpt lat="47.76955" lon="6.59353">
        <ele>351.02</ele>
        <time>2021-02-21T11:54:21Z</time>
      </trkpt>
      <trkpt lat="47.76955" lon="6.59354">
        <ele>351.5</ele>
        <time>2021-02-21T11:54:46Z</time>
      </trkpt>
      <trkpt lat="47.76953" lon="6.59352">
        <ele>351.5</ele>
        <time>2021-02-21T11:55:11Z</time>
      </trkpt>
      <trkpt lat="47.76949" lon="6.5935">
        <ele>351.02</ele>
        <time>2021-02-21T11:55:36Z</time>
      </trkpt>
      <trkpt lat="47.76947" lon="6.5935">
        <ele>351.02</ele>
        <time>2021-02-21T11:56:01Z</time>
      </trkpt>
      <trkpt lat="47.76946" lon="6.5935">
        <ele>351.02</ele>
        <time>2021-02-21T11:56:26Z</time>
      </trkpt>
      <trkpt lat="47.76945" lon="6.5935">
        <ele>351.02</ele>
        <time>2021-02-21T11:56:51Z</time>
      </trkpt>
      <trkpt lat="47.76944" lon="6.59349">
        <ele>351.5</ele>
        <time>2021-02-21T11:57:16Z</time>
      </trkpt>
      <trkpt lat="47.76944" lon="6.59346">
        <ele>350.54</ele>
        <time>2021-02-21T11:57:41Z</time>
      </trkpt>
      <trkpt lat="47.76944" lon="6.59345">
        <ele>351.5</ele>
        <time>2021-02-21T11:58:06Z</time>
      </trkpt>
      <trkpt lat="47.76944" lon="6.59345">
        <ele>351.02</ele>
        <time>2021-02-21T11:58:31Z</time>
      </trkpt>
      <trkpt lat="47.76945" lon="6.59344">
        <ele>351.5</ele>
        <time>2021-02-21T11:58:56Z</time>
      </trkpt>
      <trkpt lat="47.76945" lon="6.59343">
        <ele>351.02</ele>
        <time>2021-02-21T11:59:21Z</time>
      </trkpt>
      <trkpt lat="47.76946" lon="6.59343">
        <ele>351.02</ele>
        <time>2021-02-21T11:59:46Z</time>
      </trkpt>
      <trkpt lat="47.76946" lon="6.59343">
        <ele>351.5</ele>
        <time>2021-02-21T12:00:11Z</time>
      </trkpt>
      <trkpt lat="47.76946" lon="6.59343">
        <ele>351.5</ele>
        <time>2021-02-21T12:00:36Z</time>
      </trkpt>
      <trkpt lat="47.76946" lon="6.59345">
        <ele>351.5</ele>
        <time>2021-02-21T12:01:01Z</time>
      </trkpt>
      <trkpt lat="47.76946" lon="6.59345">
        <ele>351.02</ele>
        <time>2021-02-21T12:01:26Z</time>
      </trkpt>
      <trkpt lat="47.76946" lon="6.59346">
        <ele>350.54</ele>
        <time>2021-02-21T12:01:51Z</time>
      </trkpt>
      <trkpt lat="47.76946" lon="6.59346">
        <ele>351.02</ele>
        <time>2021-02-21T12:02:16Z</time>
      </trkpt>
      <trkpt lat="47.76946" lon="6.59346">
        <ele>350.54</ele>
        <time>2021-02-21T12:02:41Z</time>
      </trkpt>
      <trkpt lat="47.76946" lon="6.59345">
        <ele>351.02</ele>
        <time>2021-02-21T12:03:06Z</time>
      </trkpt>
      <trkpt lat="47.76946" lon="6.59346">
        <ele>351.02</ele>
        <time>2021-02-21T12:03:31Z</time>
      </trkpt>
      <trkpt lat="47.76946" lon="6.59346">
        <ele>351.5</ele>
        <time>2021-02-21T12:03:56Z</time>
      </trkpt>
      <trkpt lat="47.76945" lon="6.59346">
        <ele>351.02</ele>
        <time>2021-02-21T12:04:21Z</time>
      </trkpt>
      <trkpt lat="47.76946" lon="6.59346">
        <ele>351.5</ele>
        <time>2021-02-21T12:04:46Z</time>
      </trkpt>
      <trkpt lat="47.76946" lon="6.59346">
        <ele>351.5</ele>
        <time>2021-02-21T12:05:11Z</time>
      </trkpt>
      <trkpt lat="47.76946" lon="6.59346">
        <ele>351.02</ele>
        <time>2021-02-21T12:05:36Z</time>
      </trkpt>
      <trkpt lat="47.76946" lon="6.59346">
        <ele>351.5</ele>
        <time>2021-02-21T12:06:01Z</time>
      </trkpt>
      <trkpt lat="47.76946" lon="6.59347">
        <ele>351.02</ele>
        <time>2021-02-21T12:06:26Z</time>
      </trkpt>
      <trkpt lat="47.76946" lon="6.59347">
        <ele>351.5</ele>
        <time>2021-02-21T12:06:51Z</time>
      </trkpt>
      <trkpt lat="47.76946" lon="6.59347">
        <ele>351.02</ele>
        <time>2021-02-21T12:07:16Z</time>
      </trkpt>
      <trkpt lat="47.76946" lon="6.59348">
        <ele>351.5</ele>
        <time>2021-02-21T12:07:41Z</time>
      </trkpt>
      <trkpt lat="47.76947" lon="6.59348">
        <ele>351.98</ele>
        <time>2021-02-21T12:08:06Z</time>
      </trkpt>
      <trkpt lat="47.76947" lon="6.59348">
        <ele>351.5</ele>
        <time>2021-02-21T12:08:31Z</time>
      </trkpt>
      <trkpt lat="47.76947" lon="6.59349">
        <ele>351.5</ele>
        <time>2021-02-21T12:08:56Z</time>
      </trkpt>
      <trkpt lat="47.76947" lon="6.59351">
        <ele>351.5</ele>
        <time>2021-02-21T12:09:21Z</time>
      </trkpt>
      <trkpt lat="47.76947" lon="6.5935">
        <ele>351.98</ele>
        <time>2021-02-21T12:09:46Z</time>
      </trkpt>
      <trkpt lat="47.76947" lon="6.5935">
        <ele>350.54</ele>
        <time>2021-02-21T12:10:11Z</time>
      </trkpt>
      <trkpt lat="47.76949" lon="6.59349">
        <ele>350.54</ele>
        <time>2021-02-21T12:10:36Z</time>
      </trkpt>
      <trkpt lat="47.76948" lon="6.59348">
        <ele>350.54</ele>
        <time>2021-02-21T12:11:01Z</time>
      </trkpt>
      <trkpt lat="47.76949" lon="6.59349">
        <ele>351.02</ele>
        <time>2021-02-21T12:11:26Z</time>
      </trkpt>
      <trkpt lat="47.76948" lon="6.59349">
        <ele>351.5</ele>
        <time>2021-02-21T12:11:51Z</time>
      </trkpt>
      <trkpt lat="47.76947" lon="6.59348">
        <ele>351.5</ele>
        <time>2021-02-21T12:12:16Z</time>
      </trkpt>
      <trkpt lat="47.76947" lon="6.59348">
        <ele>351.98</ele>
        <time>2021-02-21T12:12:41Z</time>
      </trkpt>
      <trkpt lat="47.76947" lon="6.59349">
        <ele>350.54</ele>
        <time>2021-02-21T12:13:06Z</time>
      </trkpt>
      <trkpt lat="47.76947" lon="6.59349">
        <ele>351.02</ele>
        <time>2021-02-21T12:13:31Z</time>
      </trkpt>
      <trkpt lat="47.76947" lon="6.59349">
        <ele>351.02</ele>
        <time>2021-02-21T12:13:56Z</time>
      </trkpt>
      <trkpt lat="47.76947" lon="6.59349">
        <ele>352.46</ele>
        <time>2021-02-21T12:14:21Z</time>
      </trkpt>
      <trkpt lat="47.76948" lon="6.59347">
        <ele>351.98</ele>
        <time>2021-02-21T12:14:46Z</time>
      </trkpt>
      <trkpt lat="47.76949" lon="6.5936">
        <ele>352.94</ele>
        <time>2021-02-21T12:15:11Z</time>
      </trkpt>
      <trkpt lat="47.7695" lon="6.59363">
        <ele>353.9</ele>
        <time>2021-02-21T12:15:36Z</time>
      </trkpt>
      <trkpt lat="47.76965" lon="6.5938">
        <ele>358.23</ele>
        <time>2021-02-21T12:16:01Z</time>
      </trkpt>
      <trkpt lat="47.76977" lon="6.59376">
        <ele>356.31</ele>
        <time>2021-02-21T12:16:26Z</time>
      </trkpt>
      <trkpt lat="47.77002" lon="6.59357">
        <ele>362.07</ele>
        <time>2021-02-21T12:16:51Z</time>
      </trkpt>
      <trkpt lat="47.77021" lon="6.5935">
        <ele>361.59</ele>
        <time>2021-02-21T12:17:16Z</time>
      </trkpt>
      <trkpt lat="47.77048" lon="6.59344">
        <ele>363.04</ele>
        <time>2021-02-21T12:17:41Z</time>
      </trkpt>
      <trkpt lat="47.77071" lon="6.59324">
        <ele>363.52</ele>
        <time>2021-02-21T12:18:06Z</time>
      </trkpt>
      <trkpt lat="47.77081" lon="6.59319">
        <ele>361.59</ele>
        <time>2021-02-21T12:18:31Z</time>
      </trkpt>
      <trkpt lat="47.77097" lon="6.5932">
        <ele>367.36</ele>
        <time>2021-02-21T12:18:56Z</time>
      </trkpt>
      <trkpt lat="47.77115" lon="6.59351">
        <ele>366.88</ele>
        <time>2021-02-21T12:19:21Z</time>
      </trkpt>
      <trkpt lat="47.77135" lon="6.59385">
        <ele>366.4</ele>
        <time>2021-02-21T12:19:46Z</time>
      </trkpt>
      <trkpt lat="47.77126" lon="6.59414">
        <ele>363.04</ele>
        <time>2021-02-21T12:20:11Z</time>
      </trkpt>
      <trkpt lat="47.77124" lon="6.5943">
        <ele>364</ele>
        <time>2021-02-21T12:20:36Z</time>
      </trkpt>
      <trkpt lat="47.77125" lon="6.59434">
        <ele>363.04</ele>
        <time>2021-02-21T12:21:01Z</time>
      </trkpt>
      <trkpt lat="47.77129" lon="6.59438">
        <ele>363.52</ele>
        <time>2021-02-21T12:21:26Z</time>
      </trkpt>
      <trkpt lat="47.77131" lon="6.59443">
        <ele>363.52</ele>
        <time>2021-02-21T12:21:51Z</time>
      </trkpt>
      <trkpt lat="47.7713" lon="6.59443">
        <ele>363.52</ele>
        <time>2021-02-21T12:22:16Z</time>
      </trkpt>
      <trkpt lat="47.7714" lon="6.59451">
        <ele>364.96</ele>
        <time>2021-02-21T12:22:41Z</time>
      </trkpt>
      <trkpt lat="47.77162" lon="6.59459">
        <ele>366.4</ele>
        <time>2021-02-21T12:23:06Z</time>
      </trkpt>
      <trkpt lat="47.77191" lon="6.59475">
        <ele>367.84</ele>
        <time>2021-02-21T12:23:31Z</time>
      </trkpt>
      <trkpt lat="47.7719" lon="6.59474">
        <ele>368.32</ele>
        <time>2021-02-21T12:23:56Z</time>
      </trkpt>
      <trkpt lat="47.77191" lon="6.59477">
        <ele>367.84</ele>
        <time>2021-02-21T12:24:21Z</time>
      </trkpt>
      <trkpt lat="47.77209" lon="6.59457">
        <ele>368.32</ele>
        <time>2021-02-21T12:24:46Z</time>
      </trkpt>
      <trkpt lat="47.7722" lon="6.59466">
        <ele>369.28</ele>
        <time>2021-02-21T12:25:11Z</time>
      </trkpt>
      <trkpt lat="47.7725" lon="6.59449">
        <ele>368.8</ele>
        <time>2021-02-21T12:25:36Z</time>
      </trkpt>
      <trkpt lat="47.77247" lon="6.59435">
        <ele>367.84</ele>
        <time>2021-02-21T12:26:01Z</time>
      </trkpt>
      <trkpt lat="47.77265" lon="6.594">
        <ele>368.32</ele>
        <time>2021-02-21T12:26:26Z</time>
      </trkpt>
      <trkpt lat="47.77263" lon="6.59399">
        <ele>370.73</ele>
        <time>2021-02-21T12:26:51Z</time>
      </trkpt>
      <trkpt lat="47.77278" lon="6.59405">
        <ele>373.13</ele>
        <time>2021-02-21T12:27:16Z</time>
      </trkpt>
      <trkpt lat="47.77298" lon="6.59396">
        <ele>372.65</ele>
        <time>2021-02-21T12:27:41Z</time>
      </trkpt>
      <trkpt lat="47.77314" lon="6.59394">
        <ele>373.61</ele>
        <time>2021-02-21T12:28:06Z</time>
      </trkpt>
      <trkpt lat="47.77346" lon="6.59397">
        <ele>377.94</ele>
        <time>2021-02-21T12:28:31Z</time>
      </trkpt>
      <trkpt lat="47.77352" lon="6.59393">
        <ele>380.82</ele>
        <time>2021-02-21T12:28:56Z</time>
      </trkpt>
      <trkpt lat="47.77384" lon="6.59392">
        <ele>384.66</ele>
        <time>2021-02-21T12:29:21Z</time>
      </trkpt>
      <trkpt lat="47.77402" lon="6.59412">
        <ele>384.18</ele>
        <time>2021-02-21T12:29:46Z</time>
      </trkpt>
      <trkpt lat="47.77415" lon="6.59434">
        <ele>383.7</ele>
        <time>2021-02-21T12:30:11Z</time>
      </trkpt>
      <trkpt lat="47.7744" lon="6.59456">
        <ele>381.78</ele>
        <time>2021-02-21T12:30:36Z</time>
      </trkpt>
      <trkpt lat="47.77462" lon="6.59479">
        <ele>384.66</ele>
        <time>2021-02-21T12:31:01Z</time>
      </trkpt>
      <trkpt lat="47.77478" lon="6.59502">
        <ele>383.7</ele>
        <time>2021-02-21T12:31:26Z</time>
      </trkpt>
      <trkpt lat="47.77483" lon="6.59509">
        <ele>384.66</ele>
        <time>2021-02-21T12:31:51Z</time>
      </trkpt>
      <trkpt lat="47.77486" lon="6.5951">
        <ele>385.15</ele>
        <time>2021-02-21T12:32:16Z</time>
      </trkpt>
      <trkpt lat="47.77487" lon="6.59509">
        <ele>385.15</ele>
        <time>2021-02-21T12:32:41Z</time>
      </trkpt>
      <trkpt lat="47.77499" lon="6.59543">
        <ele>390.91</ele>
        <time>2021-02-21T12:33:06Z</time>
      </trkpt>
      <trkpt lat="47.77523" lon="6.59549">
        <ele>390.43</ele>
        <time>2021-02-21T12:33:31Z</time>
      </trkpt>
      <trkpt lat="47.77542" lon="6.59576">
        <ele>391.39</ele>
        <time>2021-02-21T12:33:56Z</time>
      </trkpt>
      <trkpt lat="47.77567" lon="6.59597">
        <ele>390.43</ele>
        <time>2021-02-21T12:34:21Z</time>
      </trkpt>
      <trkpt lat="47.7758" lon="6.59593">
        <ele>390.91</ele>
        <time>2021-02-21T12:34:46Z</time>
      </trkpt>
      <trkpt lat="47.77587" lon="6.59587">
        <ele>391.39</ele>
        <time>2021-02-21T12:35:11Z</time>
      </trkpt>
      <trkpt lat="47.77599" lon="6.59575">
        <ele>389.95</ele>
        <time>2021-02-21T12:35:36Z</time>
      </trkpt>
      <trkpt lat="47.77625" lon="6.59552">
        <ele>386.11</ele>
        <time>2021-02-21T12:36:01Z</time>
      </trkpt>
      <trkpt lat="47.77642" lon="6.59513">
        <ele>385.63</ele>
        <time>2021-02-21T12:36:26Z</time>
      </trkpt>
      <trkpt lat="47.77647" lon="6.59516">
        <ele>382.26</ele>
        <time>2021-02-21T12:36:51Z</time>
      </trkpt>
      <trkpt lat="47.77652" lon="6.59516">
        <ele>381.78</ele>
        <time>2021-02-21T12:37:16Z</time>
      </trkpt>
      <trkpt lat="47.77658" lon="6.59508">
        <ele>382.26</ele>
        <time>2021-02-21T12:37:41Z</time>
      </trkpt>
      <trkpt lat="47.77676" lon="6.59486">
        <ele>380.82</ele>
        <time>2021-02-21T12:38:06Z</time>
      </trkpt>
      <trkpt lat="47.77686" lon="6.59476">
        <ele>381.3</ele>
        <time>2021-02-21T12:38:31Z</time>
      </trkpt>
      <trkpt lat="47.77689" lon="6.59475">
        <ele>380.82</ele>
        <time>2021-02-21T12:38:56Z</time>
      </trkpt>
      <trkpt lat="47.77698" lon="6.59456">
        <ele>381.3</ele>
        <time>2021-02-21T12:39:21Z</time>
      </trkpt>
      <trkpt lat="47.77702" lon="6.59448">
        <ele>381.3</ele>
        <time>2021-02-21T12:39:46Z</time>
      </trkpt>
      <trkpt lat="47.77702" lon="6.59433">
        <ele>380.34</ele>
        <time>2021-02-21T12:40:11Z</time>
      </trkpt>
      <trkpt lat="47.77697" lon="6.59412">
        <ele>377.45</ele>
        <time>2021-02-21T12:40:36Z</time>
      </trkpt>
      <trkpt lat="47.77693" lon="6.59355">
        <ele>376.49</ele>
        <time>2021-02-21T12:41:01Z</time>
      </trkpt>
      <trkpt lat="47.77692" lon="6.59334">
        <ele>379.38</ele>
        <time>2021-02-21T12:41:26Z</time>
      </trkpt>
      <trkpt lat="47.77706" lon="6.59285">
        <ele>376.97</ele>
        <time>2021-02-21T12:41:51Z</time>
      </trkpt>
      <trkpt lat="47.77724" lon="6.5926">
        <ele>374.57</ele>
        <time>2021-02-21T12:42:16Z</time>
      </trkpt>
      <trkpt lat="47.77743" lon="6.59252">
        <ele>372.17</ele>
        <time>2021-02-21T12:42:41Z</time>
      </trkpt>
      <trkpt lat="47.77768" lon="6.59239">
        <ele>367.36</ele>
        <time>2021-02-21T12:43:06Z</time>
      </trkpt>
      <trkpt lat="47.77777" lon="6.59216">
        <ele>363.04</ele>
        <time>2021-02-21T12:43:31Z</time>
      </trkpt>
      <trkpt lat="47.77775" lon="6.5921">
        <ele>363.04</ele>
        <time>2021-02-21T12:43:56Z</time>
      </trkpt>
      <trkpt lat="47.77795" lon="6.59175">
        <ele>363.04</ele>
        <time>2021-02-21T12:44:21Z</time>
      </trkpt>
      <trkpt lat="47.77813" lon="6.59156">
        <ele>360.63</ele>
        <time>2021-02-21T12:44:46Z</time>
      </trkpt>
      <trkpt lat="47.77823" lon="6.59122">
        <ele>359.19</ele>
        <time>2021-02-21T12:45:11Z</time>
      </trkpt>
      <trkpt lat="47.7783" lon="6.59084">
        <ele>360.63</ele>
        <time>2021-02-21T12:45:36Z</time>
      </trkpt>
      <trkpt lat="47.77824" lon="6.59066">
        <ele>360.63</ele>
        <time>2021-02-21T12:46:01Z</time>
      </trkpt>
      <trkpt lat="47.77801" lon="6.59048">
        <ele>358.71</ele>
        <time>2021-02-21T12:46:26Z</time>
      </trkpt>
      <trkpt lat="47.77796" lon="6.59024">
        <ele>356.31</ele>
        <time>2021-02-21T12:46:51Z</time>
      </trkpt>
      <trkpt lat="47.77798" lon="6.59024">
        <ele>355.83</ele>
        <time>2021-02-21T12:47:16Z</time>
      </trkpt>
      <trkpt lat="47.77806" lon="6.58985">
        <ele>354.86</ele>
        <time>2021-02-21T12:47:41Z</time>
      </trkpt>
      <trkpt lat="47.77806" lon="6.58971">
        <ele>352.94</ele>
        <time>2021-02-21T12:48:06Z</time>
      </trkpt>
      <trkpt lat="47.77806" lon="6.5895">
        <ele>354.86</ele>
        <time>2021-02-21T12:48:31Z</time>
      </trkpt>
      <trkpt lat="47.77805" lon="6.58916">
        <ele>356.31</ele>
        <time>2021-02-21T12:48:56Z</time>
      </trkpt>
      <trkpt lat="47.77809" lon="6.589">
        <ele>356.31</ele>
        <time>2021-02-21T12:49:21Z</time>
      </trkpt>
      <trkpt lat="47.77802" lon="6.58883">
        <ele>360.63</ele>
        <time>2021-02-21T12:49:46Z</time>
      </trkpt>
      <trkpt lat="47.77804" lon="6.58862">
        <ele>364</ele>
        <time>2021-02-21T12:50:11Z</time>
      </trkpt>
      <trkpt lat="47.77804" lon="6.58832">
        <ele>364.96</ele>
        <time>2021-02-21T12:50:36Z</time>
      </trkpt>
      <trkpt lat="47.77802" lon="6.58806">
        <ele>367.36</ele>
        <time>2021-02-21T12:51:01Z</time>
      </trkpt>
      <trkpt lat="47.77808" lon="6.5877">
        <ele>367.36</ele>
        <time>2021-02-21T12:51:26Z</time>
      </trkpt>
      <trkpt lat="47.77816" lon="6.58752">
        <ele>368.8</ele>
        <time>2021-02-21T12:51:51Z</time>
      </trkpt>
      <trkpt lat="47.77816" lon="6.5875">
        <ele>368.32</ele>
        <time>2021-02-21T12:52:16Z</time>
      </trkpt>
      <trkpt lat="47.77816" lon="6.5875">
        <ele>369.28</ele>
        <time>2021-02-21T12:52:41Z</time>
      </trkpt>
      <trkpt lat="47.77822" lon="6.58753">
        <ele>369.76</ele>
        <time>2021-02-21T12:53:06Z</time>
      </trkpt>
      <trkpt lat="47.77831" lon="6.58754">
        <ele>370.24</ele>
        <time>2021-02-21T12:53:31Z</time>
      </trkpt>
      <trkpt lat="47.77833" lon="6.58748">
        <ele>370.24</ele>
        <time>2021-02-21T12:53:56Z</time>
      </trkpt>
      <trkpt lat="47.77829" lon="6.58718">
        <ele>367.36</ele>
        <time>2021-02-21T12:54:21Z</time>
      </trkpt>
      <trkpt lat="47.77827" lon="6.58693">
        <ele>369.76</ele>
        <time>2021-02-21T12:54:46Z</time>
      </trkpt>
      <trkpt lat="47.77815" lon="6.58652">
        <ele>371.21</ele>
        <time>2021-02-21T12:55:11Z</time>
      </trkpt>
      <trkpt lat="47.77815" lon="6.58639">
        <ele>370.73</ele>
        <time>2021-02-21T12:55:36Z</time>
      </trkpt>
      <trkpt lat="47.77814" lon="6.58625">
        <ele>371.21</ele>
        <time>2021-02-21T12:56:01Z</time>
      </trkpt>
      <trkpt lat="47.77815" lon="6.58623">
        <ele>371.21</ele>
        <time>2021-02-21T12:56:26Z</time>
      </trkpt>
      <trkpt lat="47.77814" lon="6.58622">
        <ele>370.73</ele>
        <time>2021-02-21T12:56:51Z</time>
      </trkpt>
      <trkpt lat="47.77817" lon="6.58604">
        <ele>376.97</ele>
        <time>2021-02-21T12:57:16Z</time>
      </trkpt>
      <trkpt lat="47.7782" lon="6.58598">
        <ele>375.05</ele>
        <time>2021-02-21T12:57:41Z</time>
      </trkpt>
      <trkpt lat="47.77831" lon="6.58593">
        <ele>376.49</ele>
        <time>2021-02-21T12:58:06Z</time>
      </trkpt>
      <trkpt lat="47.77832" lon="6.58591">
        <ele>376.97</ele>
        <time>2021-02-21T12:58:31Z</time>
      </trkpt>
      <trkpt lat="47.77834" lon="6.58593">
        <ele>377.94</ele>
        <time>2021-02-21T12:58:56Z</time>
      </trkpt>
      <trkpt lat="47.77837" lon="6.58577">
        <ele>377.94</ele>
        <time>2021-02-21T12:59:21Z</time>
      </trkpt>
      <trkpt lat="47.77838" lon="6.58575">
        <ele>381.78</ele>
        <time>2021-02-21T12:59:46Z</time>
      </trkpt>
      <trkpt lat="47.77837" lon="6.5857">
        <ele>381.3</ele>
        <time>2021-02-21T13:00:11Z</time>
      </trkpt>
      <trkpt lat="47.77836" lon="6.58553">
        <ele>382.26</ele>
        <time>2021-02-21T13:00:36Z</time>
      </trkpt>
      <trkpt lat="47.77831" lon="6.58518">
        <ele>382.26</ele>
        <time>2021-02-21T13:01:01Z</time>
      </trkpt>
      <trkpt lat="47.77833" lon="6.58493">
        <ele>378.9</ele>
        <time>2021-02-21T13:01:26Z</time>
      </trkpt>
      <trkpt lat="47.77833" lon="6.58481">
        <ele>377.94</ele>
        <time>2021-02-21T13:01:51Z</time>
      </trkpt>
      <trkpt lat="47.77834" lon="6.58449">
        <ele>375.53</ele>
        <time>2021-02-21T13:02:16Z</time>
      </trkpt>
      <trkpt lat="47.77826" lon="6.58416">
        <ele>376.97</ele>
        <time>2021-02-21T13:02:41Z</time>
      </trkpt>
      <trkpt lat="47.77814" lon="6.58379">
        <ele>373.61</ele>
        <time>2021-02-21T13:03:06Z</time>
      </trkpt>
      <trkpt lat="47.77819" lon="6.58364">
        <ele>376.01</ele>
        <time>2021-02-21T13:03:31Z</time>
      </trkpt>
      <trkpt lat="47.77833" lon="6.58329">
        <ele>376.49</ele>
        <time>2021-02-21T13:03:56Z</time>
      </trkpt>
      <trkpt lat="47.77829" lon="6.58285">
        <ele>376.49</ele>
        <time>2021-02-21T13:04:21Z</time>
      </trkpt>
      <trkpt lat="47.77846" lon="6.58263">
        <ele>376.97</ele>
        <time>2021-02-21T13:04:46Z</time>
      </trkpt>
      <trkpt lat="47.77864" lon="6.58248">
        <ele>382.74</ele>
        <time>2021-02-21T13:05:11Z</time>
      </trkpt>
      <trkpt lat="47.77857" lon="6.58236">
        <ele>380.82</ele>
        <time>2021-02-21T13:05:36Z</time>
      </trkpt>
      <trkpt lat="47.77836" lon="6.58214">
        <ele>378.42</ele>
        <time>2021-02-21T13:06:01Z</time>
      </trkpt>
      <trkpt lat="47.7781" lon="6.58202">
        <ele>377.45</ele>
        <time>2021-02-21T13:06:26Z</time>
      </trkpt>
      <trkpt lat="47.77783" lon="6.58195">
        <ele>375.53</ele>
        <time>2021-02-21T13:06:51Z</time>
      </trkpt>
      <trkpt lat="47.77755" lon="6.58186">
        <ele>375.53</ele>
        <time>2021-02-21T13:07:16Z</time>
      </trkpt>
      <trkpt lat="47.77743" lon="6.58184">
        <ele>376.01</ele>
        <time>2021-02-21T13:07:41Z</time>
      </trkpt>
      <trkpt lat="47.77721" lon="6.58184">
        <ele>375.53</ele>
        <time>2021-02-21T13:08:06Z</time>
      </trkpt>
      <trkpt lat="47.77695" lon="6.58183">
        <ele>375.05</ele>
        <time>2021-02-21T13:08:31Z</time>
      </trkpt>
      <trkpt lat="47.77693" lon="6.58185">
        <ele>376.49</ele>
        <time>2021-02-21T13:08:56Z</time>
      </trkpt>
      <trkpt lat="47.77691" lon="6.58186">
        <ele>376.97</ele>
        <time>2021-02-21T13:09:21Z</time>
      </trkpt>
      <trkpt lat="47.77672" lon="6.58177">
        <ele>376.01</ele>
        <time>2021-02-21T13:09:46Z</time>
      </trkpt>
      <trkpt lat="47.77651" lon="6.58162">
        <ele>376.01</ele>
        <time>2021-02-21T13:10:11Z</time>
      </trkpt>
      <trkpt lat="47.77654" lon="6.58133">
        <ele>379.38</ele>
        <time>2021-02-21T13:10:36Z</time>
      </trkpt>
      <trkpt lat="47.77671" lon="6.58097">
        <ele>378.9</ele>
        <time>2021-02-21T13:11:01Z</time>
      </trkpt>
      <trkpt lat="47.77686" lon="6.5806">
        <ele>377.94</ele>
        <time>2021-02-21T13:11:26Z</time>
      </trkpt>
      <trkpt lat="47.77707" lon="6.58021">
        <ele>376.01</ele>
        <time>2021-02-21T13:11:51Z</time>
      </trkpt>
      <trkpt lat="47.77726" lon="6.57986">
        <ele>375.53</ele>
        <time>2021-02-21T13:12:16Z</time>
      </trkpt>
      <trkpt lat="47.77745" lon="6.57956">
        <ele>376.49</ele>
        <time>2021-02-21T13:12:41Z</time>
      </trkpt>
      <trkpt lat="47.77756" lon="6.5795">
        <ele>377.94</ele>
        <time>2021-02-21T13:13:06Z</time>
      </trkpt>
      <trkpt lat="47.77762" lon="6.57942">
        <ele>378.42</ele>
        <time>2021-02-21T13:13:31Z</time>
      </trkpt>
      <trkpt lat="47.77768" lon="6.57938">
        <ele>378.9</ele>
        <time>2021-02-21T13:13:56Z</time>
      </trkpt>
      <trkpt lat="47.77762" lon="6.57945">
        <ele>378.42</ele>
        <time>2021-02-21T13:14:21Z</time>
      </trkpt>
      <trkpt lat="47.77761" lon="6.57941">
        <ele>375.53</ele>
        <time>2021-02-21T13:14:46Z</time>
      </trkpt>
      <trkpt lat="47.77751" lon="6.57918">
        <ele>376.97</ele>
        <time>2021-02-21T13:15:11Z</time>
      </trkpt>
      <trkpt lat="47.77758" lon="6.57937">
        <ele>378.42</ele>
        <time>2021-02-21T13:15:36Z</time>
      </trkpt>
      <trkpt lat="47.77762" lon="6.57939">
        <ele>378.42</ele>
        <time>2021-02-21T13:16:01Z</time>
      </trkpt>
      <trkpt lat="47.7776" lon="6.57942">
        <ele>377.94</ele>
        <time>2021-02-21T13:16:26Z</time>
      </trkpt>
      <trkpt lat="47.77755" lon="6.57936">
        <ele>377.94</ele>
        <time>2021-02-21T13:16:51Z</time>
      </trkpt>
      <trkpt lat="47.77753" lon="6.57931">
        <ele>377.45</ele>
        <time>2021-02-21T13:17:16Z</time>
      </trkpt>
      <trkpt lat="47.7776" lon="6.57933">
        <ele>377.94</ele>
        <time>2021-02-21T13:17:41Z</time>
      </trkpt>
      <trkpt lat="47.77761" lon="6.57934">
        <ele>377.94</ele>
        <time>2021-02-21T13:18:06Z</time>
      </trkpt>
      <trkpt lat="47.77762" lon="6.57934">
        <ele>377.45</ele>
        <time>2021-02-21T13:18:31Z</time>
      </trkpt>
      <trkpt lat="47.77768" lon="6.5793">
        <ele>377.94</ele>
        <time>2021-02-21T13:18:56Z</time>
      </trkpt>
      <trkpt lat="47.77774" lon="6.57941">
        <ele>377.45</ele>
        <time>2021-02-21T13:19:21Z</time>
      </trkpt>
      <trkpt lat="47.77769" lon="6.57943">
        <ele>377.94</ele>
        <time>2021-02-21T13:19:46Z</time>
      </trkpt>
      <trkpt lat="47.77782" lon="6.57933">
        <ele>377.94</ele>
        <time>2021-02-21T13:20:11Z</time>
      </trkpt>
      <trkpt lat="47.77787" lon="6.57936">
        <ele>376.97</ele>
        <time>2021-02-21T13:20:36Z</time>
      </trkpt>
      <trkpt lat="47.77782" lon="6.57936">
        <ele>376.97</ele>
        <time>2021-02-21T13:21:01Z</time>
      </trkpt>
      <trkpt lat="47.7778" lon="6.5794">
        <ele>377.45</ele>
        <time>2021-02-21T13:21:26Z</time>
      </trkpt>
      <trkpt lat="47.77764" lon="6.57942">
        <ele>378.42</ele>
        <time>2021-02-21T13:21:51Z</time>
      </trkpt>
      <trkpt lat="47.77758" lon="6.57948">
        <ele>377.45</ele>
        <time>2021-02-21T13:22:16Z</time>
      </trkpt>
      <trkpt lat="47.77756" lon="6.57948">
        <ele>377.45</ele>
        <time>2021-02-21T13:22:41Z</time>
      </trkpt>
      <trkpt lat="47.77758" lon="6.57935">
        <ele>376.97</ele>
        <time>2021-02-21T13:23:06Z</time>
      </trkpt>
      <trkpt lat="47.77757" lon="6.57938">
        <ele>376.49</ele>
        <time>2021-02-21T13:23:31Z</time>
      </trkpt>
      <trkpt lat="47.77758" lon="6.57938">
        <ele>376.97</ele>
        <time>2021-02-21T13:23:56Z</time>
      </trkpt>
      <trkpt lat="47.77769" lon="6.57947">
        <ele>376.49</ele>
        <time>2021-02-21T13:24:21Z</time>
      </trkpt>
      <trkpt lat="47.77766" lon="6.57944">
        <ele>376.49</ele>
        <time>2021-02-21T13:24:46Z</time>
      </trkpt>
      <trkpt lat="47.77765" lon="6.57942">
        <ele>376.49</ele>
        <time>2021-02-21T13:25:11Z</time>
      </trkpt>
      <trkpt lat="47.77762" lon="6.57942">
        <ele>376.01</ele>
        <time>2021-02-21T13:25:36Z</time>
      </trkpt>
      <trkpt lat="47.77765" lon="6.57933">
        <ele>376.01</ele>
        <time>2021-02-21T13:26:01Z</time>
      </trkpt>
      <trkpt lat="47.77766" lon="6.57939">
        <ele>376.49</ele>
        <time>2021-02-21T13:26:26Z</time>
      </trkpt>
      <trkpt lat="47.77767" lon="6.57941">
        <ele>377.45</ele>
        <time>2021-02-21T13:26:51Z</time>
      </trkpt>
      <trkpt lat="47.77766" lon="6.57941">
        <ele>376.01</ele>
        <time>2021-02-21T13:27:16Z</time>
      </trkpt>
      <trkpt lat="47.77766" lon="6.57941">
        <ele>376.01</ele>
        <time>2021-02-21T13:27:41Z</time>
      </trkpt>
      <trkpt lat="47.77769" lon="6.57943">
        <ele>376.49</ele>
        <time>2021-02-21T13:28:06Z</time>
      </trkpt>
      <trkpt lat="47.77767" lon="6.57943">
        <ele>376.49</ele>
        <time>2021-02-21T13:28:31Z</time>
      </trkpt>
      <trkpt lat="47.77767" lon="6.57943">
        <ele>375.53</ele>
        <time>2021-02-21T13:28:56Z</time>
      </trkpt>
      <trkpt lat="47.77766" lon="6.57943">
        <ele>376.97</ele>
        <time>2021-02-21T13:29:21Z</time>
      </trkpt>
      <trkpt lat="47.77766" lon="6.57943">
        <ele>376.49</ele>
        <time>2021-02-21T13:29:46Z</time>
      </trkpt>
      <trkpt lat="47.77766" lon="6.57943">
        <ele>376.49</ele>
        <time>2021-02-21T13:30:11Z</time>
      </trkpt>
      <trkpt lat="47.77765" lon="6.57943">
        <ele>376.49</ele>
        <time>2021-02-21T13:30:36Z</time>
      </trkpt>
      <trkpt lat="47.77765" lon="6.57943">
        <ele>376.49</ele>
        <time>2021-02-21T13:31:01Z</time>
      </trkpt>
      <trkpt lat="47.77765" lon="6.57943">
        <ele>376.49</ele>
        <time>2021-02-21T13:31:26Z</time>
      </trkpt>
      <trkpt lat="47.77765" lon="6.57942">
        <ele>376.97</ele>
        <time>2021-02-21T13:31:51Z</time>
      </trkpt>
      <trkpt lat="47.77765" lon="6.57942">
        <ele>376.49</ele>
        <time>2021-02-21T13:32:16Z</time>
      </trkpt>
      <trkpt lat="47.77764" lon="6.57942">
        <ele>376.97</ele>
        <time>2021-02-21T13:32:41Z</time>
      </trkpt>
      <trkpt lat="47.77764" lon="6.57942">
        <ele>376.49</ele>
        <time>2021-02-21T13:33:06Z</time>
      </trkpt>
      <trkpt lat="47.77764" lon="6.5794">
        <ele>376.49</ele>
        <time>2021-02-21T13:33:31Z</time>
      </trkpt>
      <trkpt lat="47.77764" lon="6.57942">
        <ele>376.01</ele>
        <time>2021-02-21T13:33:56Z</time>
      </trkpt>
      <trkpt lat="47.77769" lon="6.57921">
        <ele>375.53</ele>
        <time>2021-02-21T13:34:21Z</time>
      </trkpt>
      <trkpt lat="47.77801" lon="6.579">
        <ele>374.09</ele>
        <time>2021-02-21T13:34:46Z</time>
      </trkpt>
      <trkpt lat="47.77825" lon="6.57881">
        <ele>374.57</ele>
        <time>2021-02-21T13:35:11Z</time>
      </trkpt>
      <trkpt lat="47.77837" lon="6.5784">
        <ele>373.13</ele>
        <time>2021-02-21T13:35:36Z</time>
      </trkpt>
      <trkpt lat="47.77837" lon="6.57797">
        <ele>370.73</ele>
        <time>2021-02-21T13:36:01Z</time>
      </trkpt>
      <trkpt lat="47.77832" lon="6.57778">
        <ele>370.73</ele>
        <time>2021-02-21T13:36:26Z</time>
      </trkpt>
      <trkpt lat="47.77831" lon="6.57777">
        <ele>371.21</ele>
        <time>2021-02-21T13:36:51Z</time>
      </trkpt>
      <trkpt lat="47.77829" lon="6.57775">
        <ele>371.21</ele>
        <time>2021-02-21T13:37:16Z</time>
      </trkpt>
      <trkpt lat="47.77829" lon="6.57775">
        <ele>371.21</ele>
        <time>2021-02-21T13:37:41Z</time>
      </trkpt>
      <trkpt lat="47.77828" lon="6.57775">
        <ele>370.73</ele>
        <time>2021-02-21T13:38:06Z</time>
      </trkpt>
      <trkpt lat="47.77828" lon="6.57776">
        <ele>371.21</ele>
        <time>2021-02-21T13:38:31Z</time>
      </trkpt>
      <trkpt lat="47.77828" lon="6.57776">
        <ele>371.21</ele>
        <time>2021-02-21T13:38:56Z</time>
      </trkpt>
      <trkpt lat="47.77828" lon="6.57777">
        <ele>370.73</ele>
        <time>2021-02-21T13:39:21Z</time>
      </trkpt>
      <trkpt lat="47.77827" lon="6.57777">
        <ele>371.21</ele>
        <time>2021-02-21T13:39:46Z</time>
      </trkpt>
      <trkpt lat="47.77827" lon="6.57778">
        <ele>371.69</ele>
        <time>2021-02-21T13:40:11Z</time>
      </trkpt>
      <trkpt lat="47.77826" lon="6.57778">
        <ele>371.21</ele>
        <time>2021-02-21T13:40:36Z</time>
      </trkpt>
      <trkpt lat="47.77829" lon="6.57781">
        <ele>371.69</ele>
        <time>2021-02-21T13:41:01Z</time>
      </trkpt>
      <trkpt lat="47.77829" lon="6.57783">
        <ele>371.69</ele>
        <time>2021-02-21T13:41:26Z</time>
      </trkpt>
      <trkpt lat="47.7783" lon="6.57783">
        <ele>371.69</ele>
        <time>2021-02-21T13:41:51Z</time>
      </trkpt>
      <trkpt lat="47.77833" lon="6.57786">
        <ele>371.69</ele>
        <time>2021-02-21T13:42:16Z</time>
      </trkpt>
      <trkpt lat="47.77833" lon="6.57789">
        <ele>372.17</ele>
        <time>2021-02-21T13:42:41Z</time>
      </trkpt>
      <trkpt lat="47.77837" lon="6.57807">
        <ele>372.65</ele>
        <time>2021-02-21T13:43:06Z</time>
      </trkpt>
      <trkpt lat="47.77835" lon="6.5784">
        <ele>374.09</ele>
        <time>2021-02-21T13:43:31Z</time>
      </trkpt>
      <trkpt lat="47.77827" lon="6.57872">
        <ele>374.09</ele>
        <time>2021-02-21T13:43:56Z</time>
      </trkpt>
      <trkpt lat="47.77805" lon="6.57896">
        <ele>376.49</ele>
        <time>2021-02-21T13:44:21Z</time>
      </trkpt>
      <trkpt lat="47.77779" lon="6.57911">
        <ele>376.01</ele>
        <time>2021-02-21T13:44:46Z</time>
      </trkpt>
      <trkpt lat="47.77763" lon="6.57932">
        <ele>377.94</ele>
        <time>2021-02-21T13:45:11Z</time>
      </trkpt>
      <trkpt lat="47.77739" lon="6.57963">
        <ele>376.97</ele>
        <time>2021-02-21T13:45:36Z</time>
      </trkpt>
      <trkpt lat="47.7772" lon="6.57997">
        <ele>376.01</ele>
        <time>2021-02-21T13:46:01Z</time>
      </trkpt>
      <trkpt lat="47.77702" lon="6.58028">
        <ele>376.49</ele>
        <time>2021-02-21T13:46:26Z</time>
      </trkpt>
      <trkpt lat="47.77686" lon="6.58061">
        <ele>376.97</ele>
        <time>2021-02-21T13:46:51Z</time>
      </trkpt>
      <trkpt lat="47.77668" lon="6.581">
        <ele>377.94</ele>
        <time>2021-02-21T13:47:16Z</time>
      </trkpt>
      <trkpt lat="47.77654" lon="6.58134">
        <ele>378.42</ele>
        <time>2021-02-21T13:47:41Z</time>
      </trkpt>
      <trkpt lat="47.77646" lon="6.58154">
        <ele>377.45</ele>
        <time>2021-02-21T13:48:06Z</time>
      </trkpt>
      <trkpt lat="47.77637" lon="6.58153">
        <ele>376.97</ele>
        <time>2021-02-21T13:48:31Z</time>
      </trkpt>
      <trkpt lat="47.77609" lon="6.58144">
        <ele>375.05</ele>
        <time>2021-02-21T13:48:56Z</time>
      </trkpt>
      <trkpt lat="47.77586" lon="6.58137">
        <ele>374.57</ele>
        <time>2021-02-21T13:49:21Z</time>
      </trkpt>
      <trkpt lat="47.77582" lon="6.58151">
        <ele>373.13</ele>
        <time>2021-02-21T13:49:46Z</time>
      </trkpt>
      <trkpt lat="47.7758" lon="6.5815">
        <ele>373.13</ele>
        <time>2021-02-21T13:50:11Z</time>
      </trkpt>
      <trkpt lat="47.77582" lon="6.58151">
        <ele>372.65</ele>
        <time>2021-02-21T13:50:36Z</time>
      </trkpt>
      <trkpt lat="47.77579" lon="6.58152">
        <ele>372.65</ele>
        <time>2021-02-21T13:51:01Z</time>
      </trkpt>
      <trkpt lat="47.77572" lon="6.58155">
        <ele>370.73</ele>
        <time>2021-02-21T13:51:26Z</time>
      </trkpt>
      <trkpt lat="47.7757" lon="6.58155">
        <ele>370.73</ele>
        <time>2021-02-21T13:51:51Z</time>
      </trkpt>
      <trkpt lat="47.77571" lon="6.58159">
        <ele>368.8</ele>
        <time>2021-02-21T13:52:16Z</time>
      </trkpt>
      <trkpt lat="47.77564" lon="6.58179">
        <ele>368.8</ele>
        <time>2021-02-21T13:52:41Z</time>
      </trkpt>
      <trkpt lat="47.77556" lon="6.58196">
        <ele>369.76</ele>
        <time>2021-02-21T13:53:06Z</time>
      </trkpt>
      <trkpt lat="47.77538" lon="6.58247">
        <ele>370.24</ele>
        <time>2021-02-21T13:53:31Z</time>
      </trkpt>
      <trkpt lat="47.77521" lon="6.58265">
        <ele>368.32</ele>
        <time>2021-02-21T13:53:56Z</time>
      </trkpt>
      <trkpt lat="47.77503" lon="6.58286">
        <ele>365.92</ele>
        <time>2021-02-21T13:54:21Z</time>
      </trkpt>
      <trkpt lat="47.77487" lon="6.58314">
        <ele>361.59</ele>
        <time>2021-02-21T13:54:46Z</time>
      </trkpt>
      <trkpt lat="47.77475" lon="6.58333">
        <ele>357.75</ele>
        <time>2021-02-21T13:55:11Z</time>
      </trkpt>
      <trkpt lat="47.77483" lon="6.5834">
        <ele>355.83</ele>
        <time>2021-02-21T13:55:36Z</time>
      </trkpt>
      <trkpt lat="47.77477" lon="6.58361">
        <ele>352.94</ele>
        <time>2021-02-21T13:56:01Z</time>
      </trkpt>
      <trkpt lat="47.77457" lon="6.58364">
        <ele>351.5</ele>
        <time>2021-02-21T13:56:26Z</time>
      </trkpt>
      <trkpt lat="47.7746" lon="6.58365">
        <ele>351.02</ele>
        <time>2021-02-21T13:56:51Z</time>
      </trkpt>
      <trkpt lat="47.77458" lon="6.58388">
        <ele>351.5</ele>
        <time>2021-02-21T13:57:16Z</time>
      </trkpt>
      <trkpt lat="47.77453" lon="6.58399">
        <ele>351.02</ele>
        <time>2021-02-21T13:57:41Z</time>
      </trkpt>
      <trkpt lat="47.77438" lon="6.58406">
        <ele>351.98</ele>
        <time>2021-02-21T13:58:06Z</time>
      </trkpt>
      <trkpt lat="47.77426" lon="6.58417">
        <ele>351.5</ele>
        <time>2021-02-21T13:58:31Z</time>
      </trkpt>
      <trkpt lat="47.77425" lon="6.58417">
        <ele>351.98</ele>
        <time>2021-02-21T13:58:56Z</time>
      </trkpt>
      <trkpt lat="47.77425" lon="6.58416">
        <ele>352.46</ele>
        <time>2021-02-21T13:59:21Z</time>
      </trkpt>
      <trkpt lat="47.77428" lon="6.58416">
        <ele>352.46</ele>
        <time>2021-02-21T13:59:46Z</time>
      </trkpt>
      <trkpt lat="47.77428" lon="6.58415">
        <ele>352.94</ele>
        <time>2021-02-21T14:00:11Z</time>
      </trkpt>
      <trkpt lat="47.7743" lon="6.58415">
        <ele>352.46</ele>
        <time>2021-02-21T14:00:36Z</time>
      </trkpt>
      <trkpt lat="47.77429" lon="6.58413">
        <ele>352.46</ele>
        <time>2021-02-21T14:01:01Z</time>
      </trkpt>
      <trkpt lat="47.77427" lon="6.58413">
        <ele>351.98</ele>
        <time>2021-02-21T14:01:26Z</time>
      </trkpt>
      <trkpt lat="47.77418" lon="6.58428">
        <ele>352.94</ele>
        <time>2021-02-21T14:01:51Z</time>
      </trkpt>
      <trkpt lat="47.77418" lon="6.58443">
        <ele>354.38</ele>
        <time>2021-02-21T14:02:16Z</time>
      </trkpt>
      <trkpt lat="47.77418" lon="6.58448">
        <ele>355.34</ele>
        <time>2021-02-21T14:02:41Z</time>
      </trkpt>
      <trkpt lat="47.77405" lon="6.58461">
        <ele>357.75</ele>
        <time>2021-02-21T14:03:06Z</time>
      </trkpt>
      <trkpt lat="47.77385" lon="6.58487">
        <ele>352.46</ele>
        <time>2021-02-21T14:03:31Z</time>
      </trkpt>
      <trkpt lat="47.77379" lon="6.58517">
        <ele>348.62</ele>
        <time>2021-02-21T14:03:56Z</time>
      </trkpt>
      <trkpt lat="47.77366" lon="6.58536">
        <ele>345.73</ele>
        <time>2021-02-21T14:04:21Z</time>
      </trkpt>
      <trkpt lat="47.77381" lon="6.58575">
        <ele>347.65</ele>
        <time>2021-02-21T14:04:46Z</time>
      </trkpt>
      <trkpt lat="47.77405" lon="6.58598">
        <ele>348.13</ele>
        <time>2021-02-21T14:05:11Z</time>
      </trkpt>
      <trkpt lat="47.77403" lon="6.58635">
        <ele>349.1</ele>
        <time>2021-02-21T14:05:36Z</time>
      </trkpt>
      <trkpt lat="47.7738" lon="6.58657">
        <ele>347.65</ele>
        <time>2021-02-21T14:06:01Z</time>
      </trkpt>
      <trkpt lat="47.77365" lon="6.58662">
        <ele>347.17</ele>
        <time>2021-02-21T14:06:26Z</time>
      </trkpt>
      <trkpt lat="47.77365" lon="6.58664">
        <ele>346.69</ele>
        <time>2021-02-21T14:06:51Z</time>
      </trkpt>
      <trkpt lat="47.77366" lon="6.58663">
        <ele>346.69</ele>
        <time>2021-02-21T14:07:16Z</time>
      </trkpt>
      <trkpt lat="47.77366" lon="6.58663">
        <ele>346.69</ele>
        <time>2021-02-21T14:07:41Z</time>
      </trkpt>
      <trkpt lat="47.77343" lon="6.58674">
        <ele>346.69</ele>
        <time>2021-02-21T14:08:06Z</time>
      </trkpt>
      <trkpt lat="47.77337" lon="6.58686">
        <ele>346.69</ele>
        <time>2021-02-21T14:08:31Z</time>
      </trkpt>
      <trkpt lat="47.77331" lon="6.58689">
        <ele>347.17</ele>
        <time>2021-02-21T14:08:56Z</time>
      </trkpt>
      <trkpt lat="47.77326" lon="6.5868">
        <ele>347.17</ele>
        <time>2021-02-21T14:09:21Z</time>
      </trkpt>
      <trkpt lat="47.77322" lon="6.58683">
        <ele>348.13</ele>
        <time>2021-02-21T14:09:46Z</time>
      </trkpt>
      <trkpt lat="47.77299" lon="6.58668">
        <ele>346.69</ele>
        <time>2021-02-21T14:10:11Z</time>
      </trkpt>
      <trkpt lat="47.77284" lon="6.58661">
        <ele>348.13</ele>
        <time>2021-02-21T14:10:36Z</time>
      </trkpt>
      <trkpt lat="47.77277" lon="6.5865">
        <ele>347.17</ele>
        <time>2021-02-21T14:11:01Z</time>
      </trkpt>
      <trkpt lat="47.77274" lon="6.5864">
        <ele>347.65</ele>
        <time>2021-02-21T14:11:26Z</time>
      </trkpt>
      <trkpt lat="47.77288" lon="6.58573">
        <ele>345.73</ele>
        <time>2021-02-21T14:11:51Z</time>
      </trkpt>
      <trkpt lat="47.77288" lon="6.58582">
        <ele>346.69</ele>
        <time>2021-02-21T14:12:16Z</time>
      </trkpt>
      <trkpt lat="47.77263" lon="6.58625">
        <ele>348.13</ele>
        <time>2021-02-21T14:12:41Z</time>
      </trkpt>
      <trkpt lat="47.77225" lon="6.58633">
        <ele>346.69</ele>
        <time>2021-02-21T14:13:06Z</time>
      </trkpt>
      <trkpt lat="47.77191" lon="6.58634">
        <ele>349.1</ele>
        <time>2021-02-21T14:13:31Z</time>
      </trkpt>
      <trkpt lat="47.77178" lon="6.58603">
        <ele>350.54</ele>
        <time>2021-02-21T14:13:56Z</time>
      </trkpt>
      <trkpt lat="47.77164" lon="6.58566">
        <ele>348.13</ele>
        <time>2021-02-21T14:14:21Z</time>
      </trkpt>
      <trkpt lat="47.77168" lon="6.5852">
        <ele>346.69</ele>
        <time>2021-02-21T14:14:46Z</time>
      </trkpt>
      <trkpt lat="47.77161" lon="6.58486">
        <ele>345.25</ele>
        <time>2021-02-21T14:15:11Z</time>
      </trkpt>
      <trkpt lat="47.77159" lon="6.58459">
        <ele>345.25</ele>
        <time>2021-02-21T14:15:36Z</time>
      </trkpt>
      <trkpt lat="47.77157" lon="6.58447">
        <ele>346.69</ele>
        <time>2021-02-21T14:16:01Z</time>
      </trkpt>
      <trkpt lat="47.77149" lon="6.58419">
        <ele>348.13</ele>
        <time>2021-02-21T14:16:26Z</time>
      </trkpt>
      <trkpt lat="47.77143" lon="6.58411">
        <ele>345.73</ele>
        <time>2021-02-21T14:16:51Z</time>
      </trkpt>
      <trkpt lat="47.77125" lon="6.58397">
        <ele>345.25</ele>
        <time>2021-02-21T14:17:16Z</time>
      </trkpt>
      <trkpt lat="47.77087" lon="6.58388">
        <ele>344.29</ele>
        <time>2021-02-21T14:17:41Z</time>
      </trkpt>
      <trkpt lat="47.7707" lon="6.58379">
        <ele>343.33</ele>
        <time>2021-02-21T14:18:06Z</time>
      </trkpt>
      <trkpt lat="47.77093" lon="6.58401">
        <ele>344.77</ele>
        <time>2021-02-21T14:18:31Z</time>
      </trkpt>
      <trkpt lat="47.77092" lon="6.5843">
        <ele>346.69</ele>
        <time>2021-02-21T14:18:56Z</time>
      </trkpt>
      <trkpt lat="47.77069" lon="6.58453">
        <ele>351.98</ele>
        <time>2021-02-21T14:19:21Z</time>
      </trkpt>
      <trkpt lat="47.77046" lon="6.58486">
        <ele>349.58</ele>
        <time>2021-02-21T14:19:46Z</time>
      </trkpt>
      <trkpt lat="47.77026" lon="6.58515">
        <ele>347.17</ele>
        <time>2021-02-21T14:20:11Z</time>
      </trkpt>
      <trkpt lat="47.77016" lon="6.58522">
        <ele>345.73</ele>
        <time>2021-02-21T14:20:36Z</time>
      </trkpt>
      <trkpt lat="47.77005" lon="6.58524">
        <ele>349.1</ele>
        <time>2021-02-21T14:21:01Z</time>
      </trkpt>
      <trkpt lat="47.76973" lon="6.58516">
        <ele>346.21</ele>
        <time>2021-02-21T14:21:26Z</time>
      </trkpt>
      <trkpt lat="47.76954" lon="6.58533">
        <ele>345.25</ele>
        <time>2021-02-21T14:21:51Z</time>
      </trkpt>
      <trkpt lat="47.76934" lon="6.58563">
        <ele>346.21</ele>
        <time>2021-02-21T14:22:16Z</time>
      </trkpt>
      <trkpt lat="47.76905" lon="6.58589">
        <ele>344.77</ele>
        <time>2021-02-21T14:22:41Z</time>
      </trkpt>
      <trkpt lat="47.76886" lon="6.58618">
        <ele>342.37</ele>
        <time>2021-02-21T14:23:06Z</time>
      </trkpt>
      <trkpt lat="47.76873" lon="6.58636">
        <ele>340.92</ele>
        <time>2021-02-21T14:23:31Z</time>
      </trkpt>
      <trkpt lat="47.76872" lon="6.58632">
        <ele>340.92</ele>
        <time>2021-02-21T14:23:56Z</time>
      </trkpt>
      <trkpt lat="47.7688" lon="6.58673">
        <ele>341.89</ele>
        <time>2021-02-21T14:24:21Z</time>
      </trkpt>
      <trkpt lat="47.76888" lon="6.58706">
        <ele>347.17</ele>
        <time>2021-02-21T14:24:46Z</time>
      </trkpt>
      <trkpt lat="47.76888" lon="6.58718">
        <ele>344.77</ele>
        <time>2021-02-21T14:25:11Z</time>
      </trkpt>
      <trkpt lat="47.76876" lon="6.58743">
        <ele>343.33</ele>
        <time>2021-02-21T14:25:36Z</time>
      </trkpt>
      <trkpt lat="47.76868" lon="6.5877">
        <ele>338.52</ele>
        <time>2021-02-21T14:26:01Z</time>
      </trkpt>
      <trkpt lat="47.7685" lon="6.58805">
        <ele>338.52</ele>
        <time>2021-02-21T14:26:26Z</time>
      </trkpt>
      <trkpt lat="47.7685" lon="6.58807">
        <ele>338.52</ele>
        <time>2021-02-21T14:26:51Z</time>
      </trkpt>
      <trkpt lat="47.76851" lon="6.58809">
        <ele>338.04</ele>
        <time>2021-02-21T14:27:16Z</time>
      </trkpt>
      <trkpt lat="47.76846" lon="6.58813">
        <ele>336.6</ele>
        <time>2021-02-21T14:27:41Z</time>
      </trkpt>
      <trkpt lat="47.76829" lon="6.58844">
        <ele>339</ele>
        <time>2021-02-21T14:28:06Z</time>
      </trkpt>
      <trkpt lat="47.7682" lon="6.58859">
        <ele>338.04</ele>
        <time>2021-02-21T14:28:31Z</time>
      </trkpt>
      <trkpt lat="47.76795" lon="6.58892">
        <ele>339.96</ele>
        <time>2021-02-21T14:28:56Z</time>
      </trkpt>
      <trkpt lat="47.76771" lon="6.58916">
        <ele>341.89</ele>
        <time>2021-02-21T14:29:21Z</time>
      </trkpt>
      <trkpt lat="47.76747" lon="6.58933">
        <ele>338.04</ele>
        <time>2021-02-21T14:29:46Z</time>
      </trkpt>
      <trkpt lat="47.76721" lon="6.58938">
        <ele>336.12</ele>
        <time>2021-02-21T14:30:11Z</time>
      </trkpt>
      <trkpt lat="47.76692" lon="6.58939">
        <ele>335.16</ele>
        <time>2021-02-21T14:30:36Z</time>
      </trkpt>
      <trkpt lat="47.7666" lon="6.58943">
        <ele>333.71</ele>
        <time>2021-02-21T14:31:01Z</time>
      </trkpt>
      <trkpt lat="47.76637" lon="6.5896">
        <ele>333.71</ele>
        <time>2021-02-21T14:31:26Z</time>
      </trkpt>
      <trkpt lat="47.76629" lon="6.58965">
        <ele>333.71</ele>
        <time>2021-02-21T14:31:51Z</time>
      </trkpt>
      <trkpt lat="47.76623" lon="6.58963">
        <ele>333.71</ele>
        <time>2021-02-21T14:32:16Z</time>
      </trkpt>
      <trkpt lat="47.76609" lon="6.58956">
        <ele>334.2</ele>
        <time>2021-02-21T14:32:41Z</time>
      </trkpt>
      <trkpt lat="47.76607" lon="6.58957">
        <ele>333.71</ele>
        <time>2021-02-21T14:33:06Z</time>
      </trkpt>
      <trkpt lat="47.76605" lon="6.58932">
        <ele>335.64</ele>
        <time>2021-02-21T14:33:31Z</time>
      </trkpt>
      <trkpt lat="47.76611" lon="6.58887">
        <ele>332.75</ele>
        <time>2021-02-21T14:33:56Z</time>
      </trkpt>
      <trkpt lat="47.7661" lon="6.58837">
        <ele>331.31</ele>
        <time>2021-02-21T14:34:21Z</time>
      </trkpt>
      <trkpt lat="47.76605" lon="6.58796">
        <ele>331.79</ele>
        <time>2021-02-21T14:34:46Z</time>
      </trkpt>
      <trkpt lat="47.76579" lon="6.58772">
        <ele>330.83</ele>
        <time>2021-02-21T14:35:11Z</time>
      </trkpt>
      <trkpt lat="47.76554" lon="6.5876">
        <ele>329.87</ele>
        <time>2021-02-21T14:35:36Z</time>
      </trkpt>
      <trkpt lat="47.76553" lon="6.58762">
        <ele>329.39</ele>
        <time>2021-02-21T14:36:01Z</time>
      </trkpt>
      <trkpt lat="47.76542" lon="6.58748">
        <ele>329.39</ele>
        <time>2021-02-21T14:36:26Z</time>
      </trkpt>
      <trkpt lat="47.76542" lon="6.58747">
        <ele>329.87</ele>
        <time>2021-02-21T14:36:51Z</time>
      </trkpt>
      <trkpt lat="47.76542" lon="6.58747">
        <ele>329.87</ele>
        <time>2021-02-21T14:37:16Z</time>
      </trkpt>
      <trkpt lat="47.76544" lon="6.58749">
        <ele>329.87</ele>
        <time>2021-02-21T14:37:41Z</time>
      </trkpt>
      <trkpt lat="47.76538" lon="6.58737">
        <ele>329.87</ele>
        <time>2021-02-21T14:38:06Z</time>
      </trkpt>
      <trkpt lat="47.76532" lon="6.58725">
        <ele>329.87</ele>
        <time>2021-02-21T14:38:31Z</time>
      </trkpt>
      <trkpt lat="47.76531" lon="6.58725">
        <ele>330.35</ele>
        <time>2021-02-21T14:38:56Z</time>
      </trkpt>
      <trkpt lat="47.76528" lon="6.58711">
        <ele>329.87</ele>
        <time>2021-02-21T14:39:21Z</time>
      </trkpt>
      <trkpt lat="47.76514" lon="6.58691">
        <ele>329.39</ele>
        <time>2021-02-21T14:39:46Z</time>
      </trkpt>
      <trkpt lat="47.76506" lon="6.58682">
        <ele>329.87</ele>
        <time>2021-02-21T14:40:11Z</time>
      </trkpt>
      <trkpt lat="47.76492" lon="6.58669">
        <ele>329.39</ele>
        <time>2021-02-21T14:40:36Z</time>
      </trkpt>
      <trkpt lat="47.7647" lon="6.5864">
        <ele>329.87</ele>
        <time>2021-02-21T14:41:01Z</time>
      </trkpt>
      <trkpt lat="47.76459" lon="6.58631">
        <ele>330.35</ele>
        <time>2021-02-21T14:41:26Z</time>
      </trkpt>
      <trkpt lat="47.76439" lon="6.5861">
        <ele>330.83</ele>
        <time>2021-02-21T14:41:51Z</time>
      </trkpt>
      <trkpt lat="47.76422" lon="6.58596">
        <ele>332.27</ele>
        <time>2021-02-21T14:42:16Z</time>
      </trkpt>
      <trkpt lat="47.76394" lon="6.58581">
        <ele>333.71</ele>
        <time>2021-02-21T14:42:41Z</time>
      </trkpt>
      <trkpt lat="47.76388" lon="6.58573">
        <ele>333.23</ele>
        <time>2021-02-21T14:43:06Z</time>
      </trkpt>
      <trkpt lat="47.76395" lon="6.58598">
        <ele>333.71</ele>
        <time>2021-02-21T14:43:31Z</time>
      </trkpt>
      <trkpt lat="47.76388" lon="6.58618">
        <ele>329.87</ele>
        <time>2021-02-21T14:43:56Z</time>
      </trkpt>
      <trkpt lat="47.76376" lon="6.58667">
        <ele>332.27</ele>
        <time>2021-02-21T14:44:21Z</time>
      </trkpt>
      <trkpt lat="47.76386" lon="6.58702">
        <ele>330.35</ele>
        <time>2021-02-21T14:44:46Z</time>
      </trkpt>
      <trkpt lat="47.76386" lon="6.58745">
        <ele>330.35</ele>
        <time>2021-02-21T14:45:11Z</time>
      </trkpt>
      <trkpt lat="47.76377" lon="6.5876">
        <ele>337.08</ele>
        <time>2021-02-21T14:45:36Z</time>
      </trkpt>
      <trkpt lat="47.76358" lon="6.58775">
        <ele>338.52</ele>
        <time>2021-02-21T14:46:01Z</time>
      </trkpt>
      <trkpt lat="47.76347" lon="6.58779">
        <ele>340.92</ele>
        <time>2021-02-21T14:46:26Z</time>
      </trkpt>
      <trkpt lat="47.76328" lon="6.5878">
        <ele>341.41</ele>
        <time>2021-02-21T14:46:51Z</time>
      </trkpt>
      <trkpt lat="47.7631" lon="6.58793">
        <ele>340.92</ele>
        <time>2021-02-21T14:47:16Z</time>
      </trkpt>
      <trkpt lat="47.76305" lon="6.58792">
        <ele>340.92</ele>
        <time>2021-02-21T14:47:41Z</time>
      </trkpt>
      <trkpt lat="47.76305" lon="6.58796">
        <ele>341.89</ele>
        <time>2021-02-21T14:48:06Z</time>
      </trkpt>
      <trkpt lat="47.76284" lon="6.58814">
        <ele>343.81</ele>
        <time>2021-02-21T14:48:31Z</time>
      </trkpt>
      <trkpt lat="47.76271" lon="6.58847">
        <ele>344.77</ele>
        <time>2021-02-21T14:48:56Z</time>
      </trkpt>
      <trkpt lat="47.76276" lon="6.58875">
        <ele>344.29</ele>
        <time>2021-02-21T14:49:21Z</time>
      </trkpt>
      <trkpt lat="47.76271" lon="6.58907">
        <ele>341.89</ele>
        <time>2021-02-21T14:49:46Z</time>
      </trkpt>
      <trkpt lat="47.7627" lon="6.58941">
        <ele>341.89</ele>
        <time>2021-02-21T14:50:11Z</time>
      </trkpt>
      <trkpt lat="47.76271" lon="6.58945">
        <ele>341.41</ele>
        <time>2021-02-21T14:50:36Z</time>
      </trkpt>
      <trkpt lat="47.7627" lon="6.58952">
        <ele>340.44</ele>
        <time>2021-02-21T14:51:01Z</time>
      </trkpt>
      <trkpt lat="47.76273" lon="6.58952">
        <ele>341.89</ele>
        <time>2021-02-21T14:51:26Z</time>
      </trkpt>
      <trkpt lat="47.76275" lon="6.58954">
        <ele>336.12</ele>
        <time>2021-02-21T14:51:51Z</time>
      </trkpt>
      <trkpt lat="47.76275" lon="6.58955">
        <ele>342.37</ele>
        <time>2021-02-21T14:52:16Z</time>
      </trkpt>
      <trkpt lat="47.76272" lon="6.58994">
        <ele>341.89</ele>
        <time>2021-02-21T14:52:41Z</time>
      </trkpt>
      <trkpt lat="47.76275" lon="6.59031">
        <ele>344.29</ele>
        <time>2021-02-21T14:53:06Z</time>
      </trkpt>
      <trkpt lat="47.76273" lon="6.59052">
        <ele>345.25</ele>
        <time>2021-02-21T14:53:31Z</time>
      </trkpt>
      <trkpt lat="47.76274" lon="6.59071">
        <ele>344.77</ele>
        <time>2021-02-21T14:53:56Z</time>
      </trkpt>
      <trkpt lat="47.7628" lon="6.59076">
        <ele>343.81</ele>
        <time>2021-02-21T14:54:21Z</time>
      </trkpt>
      <trkpt lat="47.7628" lon="6.59076">
        <ele>342.85</ele>
        <time>2021-02-21T14:54:46Z</time>
      </trkpt>
      <trkpt lat="47.7628" lon="6.59078">
        <ele>344.77</ele>
        <time>2021-02-21T14:55:11Z</time>
      </trkpt>
      <trkpt lat="47.76253" lon="6.59087">
        <ele>348.62</ele>
        <time>2021-02-21T14:55:36Z</time>
      </trkpt>
      <trkpt lat="47.76232" lon="6.59095">
        <ele>351.98</ele>
        <time>2021-02-21T14:56:01Z</time>
      </trkpt>
      <trkpt lat="47.76206" lon="6.59085">
        <ele>353.42</ele>
        <time>2021-02-21T14:56:26Z</time>
      </trkpt>
      <trkpt lat="47.76192" lon="6.59082">
        <ele>356.79</ele>
        <time>2021-02-21T14:56:51Z</time>
      </trkpt>
      <trkpt lat="47.76171" lon="6.59098">
        <ele>360.63</ele>
        <time>2021-02-21T14:57:16Z</time>
      </trkpt>
      <trkpt lat="47.76146" lon="6.59114">
        <ele>359.19</ele>
        <time>2021-02-21T14:57:41Z</time>
      </trkpt>
      <trkpt lat="47.76136" lon="6.59128">
        <ele>359.67</ele>
        <time>2021-02-21T14:58:06Z</time>
      </trkpt>
      <trkpt lat="47.76107" lon="6.59141">
        <ele>355.34</ele>
        <time>2021-02-21T14:58:31Z</time>
      </trkpt>
      <trkpt lat="47.76083" lon="6.59134">
        <ele>352.46</ele>
        <time>2021-02-21T14:58:56Z</time>
      </trkpt>
      <trkpt lat="47.76064" lon="6.59146">
        <ele>349.1</ele>
        <time>2021-02-21T14:59:21Z</time>
      </trkpt>
      <trkpt lat="47.76054" lon="6.59144">
        <ele>348.62</ele>
        <time>2021-02-21T14:59:46Z</time>
      </trkpt>
    </trkseg>
  </trk>
</gpx>